sensor_id;sensor_type;location;lat;lon;timestamp;pressure;altitude;pressure_sealevel;temperature;humidity
46223;BME280;31943;51.410;7.564;2022-10-31T00:01:43;100758.81;;;14.90;63.69
46223;BME280;31943;51.410;7.564;2022-10-31T00:04:31;100758.78;;;14.87;63.99
46223;BME280;31943;51.410;7.564;2022-10-31T00:07:19;100763.16;;;14.89;64.15
46223;BME280;31943;51.410;7.564;2022-10-31T00:10:31;100762.31;;;14.92;64.16
46223;BME280;31943;51.410;7.564;2022-10-31T00:13:36;100770.16;;;14.93;64.22
46223;BME280;31943;51.410;7.564;2022-10-31T00:16:32;100765.81;;;14.94;64.44
46223;BME280;31943;51.410;7.564;2022-10-31T00:19:22;100766.66;;;14.97;64.35
46223;BME280;31943;51.410;7.564;2022-10-31T00:22:25;100765.78;;;15.03;64.43
46223;BME280;31943;51.410;7.564;2022-10-31T00:25:21;100768.44;;;15.05;64.58
46223;BME280;31943;51.410;7.564;2022-10-31T00:28:09;100764.94;;;15.06;64.29
46223;BME280;31943;51.410;7.564;2022-10-31T00:42:12;100766.69;;;15.00;64.42
46223;BME280;31943;51.410;7.564;2022-10-31T00:45:17;100775.44;;;14.99;64.58
46223;BME280;31943;51.410;7.564;2022-10-31T00:48:36;100767.56;;;14.99;64.58
46223;BME280;31943;51.410;7.564;2022-10-31T00:55:03;100772.81;;;14.99;64.64
46223;BME280;31943;51.410;7.564;2022-10-31T01:11:04;100769.31;;;15.02;64.91
46223;BME280;31943;51.410;7.564;2022-10-31T01:13:57;100773.69;;;15.00;64.93
46223;BME280;31943;51.410;7.564;2022-10-31T01:16:53;100774.56;;;15.02;64.74
46223;BME280;31943;51.410;7.564;2022-10-31T01:19:41;100764.91;;;15.01;64.59
46223;BME280;31943;51.410;7.564;2022-10-31T01:22:31;100768.44;;;15.01;64.88
46223;BME280;31943;51.410;7.564;2022-10-31T01:25:16;100769.31;;;15.02;64.91
46223;BME280;31943;51.410;7.564;2022-10-31T01:34:58;100767.56;;;15.04;65.16
46223;BME280;31943;51.410;7.564;2022-10-31T01:37:43;100768.44;;;15.06;64.84
46223;BME280;31943;51.410;7.564;2022-10-31T01:40:32;100773.69;;;15.05;64.90
46223;BME280;31943;51.410;7.564;2022-10-31T01:43:21;100771.06;;;15.08;64.89
46223;BME280;31943;51.410;7.564;2022-10-31T01:46:16;100779.81;;;15.10;64.95
46223;BME280;31943;51.410;7.564;2022-10-31T01:49:33;100783.34;;;15.13;65.05
46223;BME280;31943;51.410;7.564;2022-10-31T01:55:03;100792.97;;;15.14;65.08
46223;BME280;31943;51.410;7.564;2022-10-31T01:58:09;100798.22;;;15.13;65.05
46223;BME280;31943;51.410;7.564;2022-10-31T02:01:00;100804.34;;;15.10;64.97
46223;BME280;31943;51.410;7.564;2022-10-31T02:04:00;100804.34;;;15.04;65.08
46223;BME280;31943;51.410;7.564;2022-10-31T02:20:17;100761.41;;;15.08;65.44
46223;BME280;31943;51.410;7.564;2022-10-31T02:23:33;100747.38;;;15.09;65.34
46223;BME280;31943;51.410;7.564;2022-10-31T02:26:57;100748.25;;;15.13;65.39
46223;BME280;31943;51.410;7.564;2022-10-31T02:30:27;100750.03;;;15.15;65.45
46223;BME280;31943;51.410;7.564;2022-10-31T02:33:43;100741.25;;;15.18;65.26
46223;BME280;31943;51.410;7.564;2022-10-31T02:36:38;100739.50;;;15.18;64.94
46223;BME280;31943;51.410;7.564;2022-10-31T02:39:34;100736.00;;;15.16;65.13
46223;BME280;31943;51.410;7.564;2022-10-31T02:42:31;100736.03;;;15.13;65.04
46223;BME280;31943;51.410;7.564;2022-10-31T02:45:27;100725.50;;;15.12;65.03
46223;BME280;31943;51.410;7.564;2022-10-31T02:48:22;100722.00;;;15.08;64.86
46223;BME280;31943;51.410;7.564;2022-10-31T02:58:12;100738.63;;;14.93;65.06
46223;BME280;31943;51.410;7.564;2022-10-31T03:04:41;100748.22;;;14.51;65.71
46223;BME280;31943;51.410;7.564;2022-10-31T03:07:41;100753.38;;;14.27;66.31
46223;BME280;31943;51.410;7.564;2022-10-31T03:10:40;100769.97;;;14.12;66.63
46223;BME280;31943;51.410;7.564;2022-10-31T03:13:35;100770.88;;;14.14;66.81
46223;BME280;31943;51.410;7.564;2022-10-31T03:17:05;100769.16;;;14.25;66.66
46223;BME280;31943;51.410;7.564;2022-10-31T03:19:59;100777.91;;;14.29;66.38
46223;BME280;31943;51.410;7.564;2022-10-31T03:23:03;100788.44;;;14.35;65.96
46223;BME280;31943;51.410;7.564;2022-10-31T03:25:53;100781.44;;;14.38;65.90
46223;BME280;31943;51.410;7.564;2022-10-31T03:29:04;100786.69;;;14.41;65.81
46223;BME280;31943;51.410;7.564;2022-10-31T03:32:03;100783.19;;;14.39;65.53
46223;BME280;31943;51.410;7.564;2022-10-31T03:34:53;100790.19;;;14.39;65.78
46223;BME280;31943;51.410;7.564;2022-10-31T03:37:48;100786.69;;;14.38;65.42
46223;BME280;31943;51.410;7.564;2022-10-31T03:40:37;100778.81;;;14.37;65.15
46223;BME280;31943;51.410;7.564;2022-10-31T03:43:30;100771.78;;;14.33;64.95
46223;BME280;31943;51.410;7.564;2022-10-31T03:46:20;100777.91;;;14.26;64.74
46223;BME280;31943;51.410;7.564;2022-10-31T03:49:15;100784.03;;;14.23;64.80
46223;BME280;31943;51.410;7.564;2022-10-31T03:52:40;100774.34;;;14.19;64.68
46223;BME280;31943;51.410;7.564;2022-10-31T03:55:40;100774.38;;;14.16;64.91
46223;BME280;31943;51.410;7.564;2022-10-31T03:58:33;100776.97;;;14.14;65.23
46223;BME280;31943;51.410;7.564;2022-10-31T04:05:16;100782.22;;;14.14;65.34
46223;BME280;31943;51.410;7.564;2022-10-31T04:08:26;100780.50;;;14.18;65.41
46223;BME280;31943;51.410;7.564;2022-10-31T04:11:17;100778.75;;;14.18;65.72
46223;BME280;31943;51.410;7.564;2022-10-31T04:17:34;100768.25;;;14.20;65.88
46223;BME280;31943;51.410;7.564;2022-10-31T05:33:49;100725.22;;;13.76;66.57
46223;BME280;31943;51.410;7.564;2022-10-31T05:36:44;100721.72;;;13.77;66.37
46223;BME280;31943;51.410;7.564;2022-10-31T05:39:40;100719.09;;;13.77;66.21
46223;BME280;31943;51.410;7.564;2022-10-31T05:45:54;100723.47;;;13.77;65.84
46223;BME280;31943;51.410;7.564;2022-10-31T05:48:57;100714.72;;;13.75;65.58
46223;BME280;31943;51.410;7.564;2022-10-31T06:02:04;100705.91;;;13.57;65.33
46223;BME280;31943;51.410;7.564;2022-10-31T06:05:21;100713.78;;;13.60;65.34
46223;BME280;31943;51.410;7.564;2022-10-31T06:08:12;100712.00;;;13.58;65.23
46223;BME280;31943;51.410;7.564;2022-10-31T06:11:07;100709.41;;;13.55;65.05
46223;BME280;31943;51.410;7.564;2022-10-31T06:13:52;100714.63;;;13.53;65.18
46223;BME280;31943;51.410;7.564;2022-10-31T06:16:47;100705.88;;;13.54;64.97
46223;BME280;31943;51.410;7.564;2022-10-31T06:19:35;100704.09;;;13.50;65.21
46223;BME280;31943;51.410;7.564;2022-10-31T06:22:37;100711.09;;;13.48;65.22
46223;BME280;31943;51.410;7.564;2022-10-31T06:29:08;100709.34;;;13.47;65.06
46223;BME280;31943;51.410;7.564;2022-10-31T06:32:08;100708.47;;;13.48;64.76
46223;BME280;31943;51.410;7.564;2022-10-31T06:35:18;100709.31;;;13.44;64.94
46223;BME280;31943;51.410;7.564;2022-10-31T07:03:55;100716.34;;;13.47;64.71
46223;BME280;31943;51.410;7.564;2022-10-31T07:06:40;100727.69;;;13.47;64.77
46223;BME280;31943;51.410;7.564;2022-10-31T07:09:30;100725.91;;;13.41;65.21
46223;BME280;31943;51.410;7.564;2022-10-31T07:12:22;100731.19;;;13.43;65.35
46223;BME280;31943;51.410;7.564;2022-10-31T07:15:21;100728.56;;;13.48;65.34
46223;BME280;31943;51.410;7.564;2022-10-31T07:18:27;100728.59;;;13.51;65.34
46223;BME280;31943;51.410;7.564;2022-10-31T07:21:39;100726.84;;;13.56;65.60
46223;BME280;31943;51.410;7.564;2022-10-31T07:24:26;100728.66;;;13.58;65.65
46223;BME280;31943;51.410;7.564;2022-10-31T07:27:38;100734.78;;;13.63;65.65
46223;BME280;31943;51.410;7.564;2022-10-31T09:06:33;100708.88;;;14.65;66.39
46223;BME280;31943;51.410;7.564;2022-10-31T09:09:15;100711.50;;;14.65;66.65
46223;BME280;31943;51.410;7.564;2022-10-31T09:12:17;100711.47;;;14.57;66.47
46223;BME280;31943;51.410;7.564;2022-10-31T09:22:22;100700.91;;;14.31;67.40
46223;BME280;31943;51.410;7.564;2022-10-31T09:25:36;100704.38;;;14.24;67.92
46223;BME280;31943;51.410;7.564;2022-10-31T09:28:24;100701.78;;;14.27;68.01
46223;BME280;31943;51.410;7.564;2022-10-31T09:32:15;100696.53;;;14.30;68.34
46223;BME280;31943;51.410;7.564;2022-10-31T10:25:32;100654.09;;;16.15;65.38
46223;BME280;31943;51.410;7.564;2022-10-31T10:28:32;100653.28;;;16.07;65.94
46223;BME280;31943;51.410;7.564;2022-10-31T10:31:25;100644.56;;;15.95;65.98
46223;BME280;31943;51.410;7.564;2022-10-31T10:34:31;100643.75;;;15.90;66.46
46223;BME280;31943;51.410;7.564;2022-10-31T10:37:58;100635.81;;;15.93;66.64
46223;BME280;31943;51.410;7.564;2022-10-31T11:16:40;100566.16;;;17.91;63.67
46223;BME280;31943;51.410;7.564;2022-10-31T11:19:31;100565.00;;;18.10;63.71
46223;BME280;31943;51.410;7.564;2022-10-31T11:23:18;100554.19;;;18.24;63.15
46223;BME280;31943;51.410;7.564;2022-10-31T11:26:23;100554.09;;;18.30;63.11
46223;BME280;31943;51.410;7.564;2022-10-31T11:29:24;100547.84;;;18.34;62.85
46223;BME280;31943;51.410;7.564;2022-10-31T13:40:00;100337.41;;;20.19;55.18
46223;BME280;31943;51.410;7.564;2022-10-31T13:43:23;100334.97;;;20.11;54.27
46223;BME280;31943;51.410;7.564;2022-10-31T13:46:23;100321.75;;;20.10;54.63
46223;BME280;31943;51.410;7.564;2022-10-31T13:49:24;100315.63;;;20.08;55.21
46223;BME280;31943;51.410;7.564;2022-10-31T13:52:21;100308.66;;;20.05;54.52
46223;BME280;31943;51.410;7.564;2022-10-31T13:55:41;100311.19;;;20.08;55.24
46223;BME280;31943;51.410;7.564;2022-10-31T13:58:27;100310.34;;;20.08;55.57
46223;BME280;31943;51.410;7.564;2022-10-31T14:01:16;100292.78;;;20.04;54.88
46223;BME280;31943;51.410;7.564;2022-10-31T14:04:05;100289.28;;;20.03;54.80
46223;BME280;31943;51.410;7.564;2022-10-31T14:06:58;100284.88;;;20.02;55.65
46223;BME280;31943;51.410;7.564;2022-10-31T14:09:55;100273.47;;;20.00;55.72
46223;BME280;31943;51.410;7.564;2022-10-31T14:12:42;100270.88;;;19.97;56.45
46223;BME280;31943;51.410;7.564;2022-10-31T14:15:29;100263.78;;;19.99;56.19
46223;BME280;31943;51.410;7.564;2022-10-31T14:18:23;100260.22;;;20.00;56.68
46223;BME280;31943;51.410;7.564;2022-10-31T14:21:25;100262.84;;;20.02;56.64
46223;BME280;31943;51.410;7.564;2022-10-31T14:24:28;100250.50;;;20.01;56.76
46223;BME280;31943;51.410;7.564;2022-10-31T14:27:44;100241.59;;;20.03;56.66
46223;BME280;31943;51.410;7.564;2022-10-31T14:30:30;100249.44;;;20.06;55.95
46223;BME280;31943;51.410;7.564;2022-10-31T14:33:19;100250.19;;;20.11;55.85
46223;BME280;31943;51.410;7.564;2022-10-31T14:36:07;100264.22;;;20.15;57.10
46223;BME280;31943;51.410;7.564;2022-10-31T14:38:57;100254.44;;;20.17;57.89
46223;BME280;31943;51.410;7.564;2022-10-31T14:41:49;100233.28;;;20.15;57.66
46223;BME280;31943;51.410;7.564;2022-10-31T14:50:59;100249.56;;;20.03;58.50
46223;BME280;31943;51.410;7.564;2022-10-31T14:53:48;100236.53;;;19.95;59.13
46223;BME280;31943;51.410;7.564;2022-10-31T14:56:36;100235.81;;;19.89;58.56
46223;BME280;31943;51.410;7.564;2022-10-31T14:59:27;100227.97;;;19.86;58.45
46223;BME280;31943;51.410;7.564;2022-10-31T15:02:17;100226.25;;;19.83;58.15
46223;BME280;31943;51.410;7.564;2022-10-31T15:05:08;100213.16;;;19.79;57.70
46223;BME280;31943;51.410;7.564;2022-10-31T15:07:53;100215.13;;;19.72;57.40
46223;BME280;31943;51.410;7.564;2022-10-31T15:10:45;100209.06;;;19.67;57.37
46223;BME280;31943;51.410;7.564;2022-10-31T15:13:29;100202.16;;;19.61;56.32
46223;BME280;31943;51.410;7.564;2022-10-31T15:16:16;100198.75;;;19.56;56.42
46223;BME280;31943;51.410;7.564;2022-10-31T15:19:05;100191.78;;;19.53;56.27
46223;BME280;31943;51.410;7.564;2022-10-31T15:21:53;100184.84;;;19.49;56.57
46223;BME280;31943;51.410;7.564;2022-10-31T15:24:38;100182.22;;;19.48;56.42
46223;BME280;31943;51.410;7.564;2022-10-31T15:27:23;100176.25;;;19.41;56.52
46223;BME280;31943;51.410;7.564;2022-10-31T15:30:17;100173.59;;;19.41;56.60
46223;BME280;31943;51.410;7.564;2022-10-31T15:33:14;100178.94;;;19.40;57.04
46223;BME280;31943;51.410;7.564;2022-10-31T15:36:02;100162.22;;;19.38;57.06
46223;BME280;31943;51.410;7.564;2022-10-31T15:38:46;100165.91;;;19.32;56.89
46223;BME280;31943;51.410;7.564;2022-10-31T15:41:33;100165.19;;;19.27;56.43
46223;BME280;31943;51.410;7.564;2022-10-31T15:44:21;100155.53;;;19.24;56.47
46223;BME280;31943;51.410;7.564;2022-10-31T15:47:13;100159.13;;;19.22;56.78
46223;BME280;31943;51.410;7.564;2022-10-31T15:50:00;100161.03;;;19.16;56.33
46223;BME280;31943;51.410;7.564;2022-10-31T15:52:47;100157.66;;;19.11;57.13
46223;BME280;31943;51.410;7.564;2022-10-31T15:55:38;100161.28;;;19.07;57.01
46223;BME280;31943;51.410;7.564;2022-10-31T15:58:35;100145.53;;;19.03;56.39
46223;BME280;31943;51.410;7.564;2022-10-31T16:01:25;100139.41;;;19.01;55.79
46223;BME280;31943;51.410;7.564;2022-10-31T16:04:21;100145.66;;;18.98;55.50
46223;BME280;31943;51.410;7.564;2022-10-31T16:07:14;100146.63;;;18.95;55.17
46223;BME280;31943;51.410;7.564;2022-10-31T16:10:03;100132.59;;;18.92;53.86
46223;BME280;31943;51.410;7.564;2022-10-31T16:12:47;100127.41;;;18.87;53.96
46223;BME280;31943;51.410;7.564;2022-10-31T16:15:33;100124.91;;;18.83;53.93
46223;BME280;31943;51.410;7.564;2022-10-31T16:18:18;100121.44;;;18.79;53.34
46223;BME280;31943;51.410;7.564;2022-10-31T16:21:02;100123.22;;;18.78;53.39
46223;BME280;31943;51.410;7.564;2022-10-31T16:23:51;100118.00;;;18.75;53.21
46223;BME280;31943;51.410;7.564;2022-10-31T16:26:38;100117.22;;;18.72;52.90
46223;BME280;31943;51.410;7.564;2022-10-31T16:29:28;100109.38;;;18.69;53.18
46223;BME280;31943;51.410;7.564;2022-10-31T16:32:26;100100.59;;;18.67;53.02
46223;BME280;31943;51.410;7.564;2022-10-31T16:35:23;100097.22;;;18.62;52.33
46223;BME280;31943;51.410;7.564;2022-10-31T16:38:08;100109.72;;;18.55;52.50
46223;BME280;31943;51.410;7.564;2022-10-31T16:40:52;100103.63;;;18.51;52.37
46223;BME280;31943;51.410;7.564;2022-10-31T16:43:39;100099.34;;;18.47;51.91
46223;BME280;31943;51.410;7.564;2022-10-31T16:46:24;100104.75;;;18.43;51.52
46223;BME280;31943;51.410;7.564;2022-10-31T16:49:10;100101.31;;;18.39;51.64
46223;BME280;31943;51.410;7.564;2022-10-31T16:51:55;100093.38;;;18.39;51.51
46223;BME280;31943;51.410;7.564;2022-10-31T16:54:39;100089.03;;;18.36;51.20
46223;BME280;31943;51.410;7.564;2022-10-31T16:57:26;100082.06;;;18.32;51.87
46223;BME280;31943;51.410;7.564;2022-10-31T17:00:16;100079.56;;;18.28;51.92
46223;BME280;31943;51.410;7.564;2022-10-31T17:03:01;100079.72;;;18.22;51.42
46223;BME280;31943;51.410;7.564;2022-10-31T17:05:46;100074.47;;;18.20;51.20
46223;BME280;31943;51.410;7.564;2022-10-31T17:08:30;100078.03;;;18.19;51.24
46223;BME280;31943;51.410;7.564;2022-10-31T17:11:17;100071.13;;;18.13;51.41
46223;BME280;31943;51.410;7.564;2022-10-31T17:14:03;100079.03;;;18.13;51.54
46223;BME280;31943;51.410;7.564;2022-10-31T17:16:49;100087.00;;;18.10;51.44
46223;BME280;31943;51.410;7.564;2022-10-31T17:19:33;100083.66;;;18.04;51.15
46223;BME280;31943;51.410;7.564;2022-10-31T17:22:18;100089.09;;;17.97;50.66
46223;BME280;31943;51.410;7.564;2022-10-31T17:25:03;100083.75;;;17.99;50.50
46223;BME280;31943;51.410;7.564;2022-10-31T17:27:48;100082.88;;;17.98;50.92
46223;BME280;31943;51.410;7.564;2022-10-31T17:30:32;100079.41;;;17.98;50.82
46223;BME280;31943;51.410;7.564;2022-10-31T17:33:19;100073.19;;;17.99;50.75
46223;BME280;31943;51.410;7.564;2022-10-31T17:36:04;100069.91;;;17.89;50.03
46223;BME280;31943;51.410;7.564;2022-10-31T17:38:48;100065.53;;;17.88;50.54
46223;BME280;31943;51.410;7.564;2022-10-31T17:41:32;100056.81;;;17.85;50.76
46223;BME280;31943;51.410;7.564;2022-10-31T17:44:17;100060.31;;;17.85;51.04
46223;BME280;31943;51.410;7.564;2022-10-31T17:47:03;100056.78;;;17.86;50.39
46223;BME280;31943;51.410;7.564;2022-10-31T17:49:49;100066.50;;;17.84;50.72
46223;BME280;31943;51.410;7.564;2022-10-31T17:52:33;100055.09;;;17.82;50.66
46223;BME280;31943;51.410;7.564;2022-10-31T17:55:18;100050.66;;;17.83;50.89
46223;BME280;31943;51.410;7.564;2022-10-31T17:58:03;100053.31;;;17.83;51.09
46223;BME280;31943;51.410;7.564;2022-10-31T18:00:47;100061.22;;;17.83;50.90
46223;BME280;31943;51.410;7.564;2022-10-31T18:03:32;100052.47;;;17.81;51.00
46223;BME280;31943;51.410;7.564;2022-10-31T18:06:18;100051.63;;;17.80;50.77
46223;BME280;31943;51.410;7.564;2022-10-31T18:09:03;100046.28;;;17.82;50.47
46223;BME280;31943;51.410;7.564;2022-10-31T18:11:48;100045.44;;;17.79;50.23
46223;BME280;31943;51.410;7.564;2022-10-31T18:14:32;100044.53;;;17.82;49.91
46223;BME280;31943;51.410;7.564;2022-10-31T18:17:16;100051.53;;;17.83;50.61
46223;BME280;31943;51.410;7.564;2022-10-31T18:20:00;100047.09;;;17.87;50.78
46223;BME280;31943;51.410;7.564;2022-10-31T18:22:46;100048.88;;;17.83;50.15
46223;BME280;31943;51.410;7.564;2022-10-31T18:25:30;100053.19;;;17.89;49.93
46223;BME280;31943;51.410;7.564;2022-10-31T18:28:16;100051.41;;;17.89;49.77
46223;BME280;31943;51.410;7.564;2022-10-31T18:31:01;100041.75;;;17.90;49.63
46223;BME280;31943;51.410;7.564;2022-10-31T18:33:46;100051.31;;;17.94;49.90
46223;BME280;31943;51.410;7.564;2022-10-31T18:36:30;100049.53;;;17.96;50.14
46223;BME280;31943;51.410;7.564;2022-10-31T18:39:16;100039.00;;;17.94;50.33
46223;BME280;31943;51.410;7.564;2022-10-31T18:42:00;100036.38;;;17.93;50.36
46223;BME280;31943;51.410;7.564;2022-10-31T18:44:45;100042.59;;;17.90;50.70
46223;BME280;31943;51.410;7.564;2022-10-31T18:47:29;100037.44;;;17.86;51.17
46223;BME280;31943;51.410;7.564;2022-10-31T18:50:19;100033.06;;;17.83;50.91
46223;BME280;31943;51.410;7.564;2022-10-31T18:53:04;100034.84;;;17.81;50.80
46223;BME280;31943;51.410;7.564;2022-10-31T18:55:53;100027.91;;;17.78;51.20
46223;BME280;31943;51.410;7.564;2022-10-31T18:58:38;100035.06;;;17.72;51.78
46223;BME280;31943;51.410;7.564;2022-10-31T19:01:22;100033.47;;;17.66;52.02
46223;BME280;31943;51.410;7.564;2022-10-31T19:04:10;100042.41;;;17.59;52.19
46223;BME280;31943;51.410;7.564;2022-10-31T19:06:55;100037.25;;;17.53;52.63
46223;BME280;31943;51.410;7.564;2022-10-31T19:09:40;100030.38;;;17.46;52.68
46223;BME280;31943;51.410;7.564;2022-10-31T19:12:26;100031.38;;;17.40;53.21
46223;BME280;31943;51.410;7.564;2022-10-31T19:15:13;100033.31;;;17.32;54.00
46223;BME280;31943;51.410;7.564;2022-10-31T19:17:58;100024.69;;;17.25;54.57
46223;BME280;31943;51.410;7.564;2022-10-31T19:20:42;100022.22;;;17.16;54.68
46223;BME280;31943;51.410;7.564;2022-10-31T19:23:29;100023.22;;;17.09;55.15
46223;BME280;31943;51.410;7.564;2022-10-31T19:26:14;100020.00;;;16.96;55.03
46223;BME280;31943;51.410;7.564;2022-10-31T19:29:00;100012.25;;;16.87;55.31
46223;BME280;31943;51.410;7.564;2022-10-31T19:31:45;100009.75;;;16.77;55.48
46223;BME280;31943;51.410;7.564;2022-10-31T19:34:29;100013.44;;;16.70;55.93
46223;BME280;31943;51.410;7.564;2022-10-31T19:37:15;100003.94;;;16.60;55.70
46223;BME280;31943;51.410;7.564;2022-10-31T19:40:00;100004.16;;;16.49;56.05
46223;BME280;31943;51.410;7.564;2022-10-31T19:42:50;100006.94;;;16.40;56.28
46223;BME280;31943;51.410;7.564;2022-10-31T19:45:37;100005.38;;;16.28;56.96
46223;BME280;31943;51.410;7.564;2022-10-31T19:48:23;100007.31;;;16.17;57.03
46223;BME280;31943;51.410;7.564;2022-10-31T19:51:09;100006.56;;;16.10;56.57
46223;BME280;31943;51.410;7.564;2022-10-31T19:53:54;100001.34;;;16.07;57.07
46223;BME280;31943;51.410;7.564;2022-10-31T19:56:38;100003.22;;;16.02;57.74
46223;BME280;31943;51.410;7.564;2022-10-31T19:59:23;99996.28;;;15.96;57.41
46223;BME280;31943;51.410;7.564;2022-10-31T20:02:12;99991.13;;;15.90;57.67
46223;BME280;31943;51.410;7.564;2022-10-31T20:04:56;99993.81;;;15.86;57.90
46223;BME280;31943;51.410;7.564;2022-10-31T20:07:41;99988.59;;;15.82;57.71
46223;BME280;31943;51.410;7.564;2022-10-31T20:10:25;99989.53;;;15.80;57.62
46223;BME280;31943;51.410;7.564;2022-10-31T20:13:13;99984.28;;;15.78;57.97
46223;BME280;31943;51.410;7.564;2022-10-31T20:16:01;99989.59;;;15.75;57.88
46223;BME280;31943;51.410;7.564;2022-10-31T20:18:48;99994.81;;;15.77;58.10
46223;BME280;31943;51.410;7.564;2022-10-31T20:21:38;99987.84;;;15.76;58.14
46223;BME280;31943;51.410;7.564;2022-10-31T20:24:23;99986.94;;;15.75;58.53
46223;BME280;31943;51.410;7.564;2022-10-31T20:27:11;99986.94;;;15.77;58.14
46223;BME280;31943;51.410;7.564;2022-10-31T20:29:55;99981.66;;;15.77;58.20
46223;BME280;31943;51.410;7.564;2022-10-31T20:32:40;99986.94;;;15.75;58.32
46223;BME280;31943;51.410;7.564;2022-10-31T20:35:26;99984.38;;;15.71;58.31
46223;BME280;31943;51.410;7.564;2022-10-31T20:38:13;99966.91;;;15.67;58.66
46223;BME280;31943;51.410;7.564;2022-10-31T20:40:59;99968.69;;;15.63;58.78
46223;BME280;31943;51.410;7.564;2022-10-31T20:43:44;99965.25;;;15.59;58.73
46223;BME280;31943;51.410;7.564;2022-10-31T20:46:29;99960.91;;;15.55;58.74
46223;BME280;31943;51.410;7.564;2022-10-31T20:49:14;99956.63;;;15.50;58.34
46223;BME280;31943;51.410;7.564;2022-10-31T20:51:59;99953.25;;;15.41;58.33
46223;BME280;31943;51.410;7.564;2022-10-31T20:54:43;99946.31;;;15.34;58.74
46223;BME280;31943;51.410;7.564;2022-10-31T20:57:27;99946.38;;;15.33;58.64
46223;BME280;31943;51.410;7.564;2022-10-31T21:00:12;99944.63;;;15.32;59.14
46223;BME280;31943;51.410;7.564;2022-10-31T21:02:57;99942.00;;;15.30;59.17
46223;BME280;31943;51.410;7.564;2022-10-31T21:05:42;99945.50;;;15.31;59.42
46223;BME280;31943;51.410;7.564;2022-10-31T21:08:29;99938.47;;;15.33;59.13
46223;BME280;31943;51.410;7.564;2022-10-31T21:11:15;99930.53;;;15.36;59.27
46223;BME280;31943;51.410;7.564;2022-10-31T21:14:00;99925.25;;;15.37;59.26
46223;BME280;31943;51.410;7.564;2022-10-31T21:16:44;99944.53;;;15.36;58.79
46223;BME280;31943;51.410;7.564;2022-10-31T21:19:29;99940.06;;;15.43;59.36
46223;BME280;31943;51.410;7.564;2022-10-31T21:22:13;99940.00;;;15.48;59.21
46223;BME280;31943;51.410;7.564;2022-10-31T21:25:00;99936.44;;;15.50;58.76
46223;BME280;31943;51.410;7.564;2022-10-31T21:27:45;99937.25;;;15.55;58.67
46223;BME280;31943;51.410;7.564;2022-10-31T21:30:29;99931.88;;;15.63;58.42
46223;BME280;31943;51.410;7.564;2022-10-31T21:33:14;99914.19;;;15.71;58.01
46223;BME280;31943;51.410;7.564;2022-10-31T21:35:58;99918.50;;;15.80;57.58
46223;BME280;31943;51.410;7.564;2022-10-31T21:38:43;99913.06;;;15.89;57.30
46223;BME280;31943;51.410;7.564;2022-10-31T21:41:29;99919.03;;;15.99;57.02
46223;BME280;31943;51.410;7.564;2022-10-31T21:44:14;99904.88;;;16.06;56.87
46223;BME280;31943;51.410;7.564;2022-10-31T21:46:58;99911.72;;;16.15;56.82
46223;BME280;31943;51.410;7.564;2022-10-31T21:49:43;99902.81;;;16.22;56.49
46223;BME280;31943;51.410;7.564;2022-10-31T21:52:27;99903.66;;;16.24;56.42
46223;BME280;31943;51.410;7.564;2022-10-31T21:55:12;99893.03;;;16.29;56.50
46223;BME280;31943;51.410;7.564;2022-10-31T21:57:58;99888.59;;;16.32;56.66
46223;BME280;31943;51.410;7.564;2022-10-31T22:00:43;99895.63;;;16.32;56.58
46223;BME280;31943;51.410;7.564;2022-10-31T22:03:27;99890.47;;;16.27;56.41
46223;BME280;31943;51.410;7.564;2022-10-31T22:06:12;99877.22;;;16.30;56.64
46223;BME280;31943;51.410;7.564;2022-10-31T22:08:57;99879.81;;;16.33;56.60
46223;BME280;31943;51.410;7.564;2022-10-31T22:11:42;99880.69;;;16.32;56.64
46223;BME280;31943;51.410;7.564;2022-10-31T22:14:28;99874.56;;;16.32;56.53
46223;BME280;31943;51.410;7.564;2022-10-31T22:17:13;99857.88;;;16.33;56.19
46223;BME280;31943;51.410;7.564;2022-10-31T22:19:58;99855.16;;;16.36;55.98
46223;BME280;31943;51.410;7.564;2022-10-31T22:22:43;99848.06;;;16.41;55.25
46223;BME280;31943;51.410;7.564;2022-10-31T22:25:29;99846.94;;;16.53;55.06
46223;BME280;31943;51.410;7.564;2022-10-31T22:28:13;99852.91;;;16.61;55.04
46223;BME280;31943;51.410;7.564;2022-10-31T22:31:02;99845.72;;;16.68;54.70
46223;BME280;31943;51.410;7.564;2022-10-31T22:33:48;99858.72;;;16.75;54.48
46223;BME280;31943;51.410;7.564;2022-10-31T22:36:32;99845.44;;;16.82;54.27
46223;BME280;31943;51.410;7.564;2022-10-31T22:39:16;99850.56;;;16.89;53.98
46223;BME280;31943;51.410;7.564;2022-10-31T22:42:01;99842.47;;;16.97;53.81
46223;BME280;31943;51.410;7.564;2022-10-31T22:44:46;99846.75;;;17.03;53.59
46223;BME280;31943;51.410;7.564;2022-10-31T22:47:32;99850.16;;;17.08;53.65
46223;BME280;31943;51.410;7.564;2022-10-31T22:50:17;99842.13;;;17.12;53.46
46223;BME280;31943;51.410;7.564;2022-10-31T22:53:02;99831.47;;;17.17;53.41
46223;BME280;31943;51.410;7.564;2022-10-31T22:55:48;99837.53;;;17.20;53.01
46223;BME280;31943;51.410;7.564;2022-10-31T22:58:33;99834.03;;;17.20;53.13
46223;BME280;31943;51.410;7.564;2022-10-31T23:01:20;99839.31;;;17.20;53.52
46223;BME280;31943;51.410;7.564;2022-10-31T23:04:07;99834.00;;;17.22;53.31
46223;BME280;31943;51.410;7.564;2022-10-31T23:07:04;99825.19;;;17.23;53.20
46223;BME280;31943;51.410;7.564;2022-10-31T23:09:49;99824.28;;;17.24;53.13
46223;BME280;31943;51.410;7.564;2022-10-31T23:12:34;99828.66;;;17.25;53.25
46223;BME280;31943;51.410;7.564;2022-10-31T23:15:19;99825.94;;;17.28;53.29
46223;BME280;31943;51.410;7.564;2022-10-31T23:18:04;99826.78;;;17.30;53.55
46223;BME280;31943;51.410;7.564;2022-10-31T23:21:01;99821.56;;;17.27;53.43
46223;BME280;31943;51.410;7.564;2022-10-31T23:23:47;99821.53;;;17.28;53.12
46223;BME280;31943;51.410;7.564;2022-10-31T23:26:36;99812.72;;;17.31;53.31